Time;durP1;ratioP1;P1;durP2;ratioP2;P2;SDS_P1;SDS_P2;PMS_P1;PMS_P2;Temp;Humidity;BMP_temperature;BMP_pressure;BME280_temperature;BME280_humidity;BME280_pressure;Samples;Min_cycle;Max_cycle;Signal;HPM_P1;HPM_P2
2020/12/21 00:02:57;;;;;;;54.63;24.97;;;;;;;-0.02;94.36;101363.55;3434962;85;26351;-87
2020/12/21 00:08:02;;;;;;;51.00;24.57;;;;;;;-0.08;94.28;101360.62;3418990;85;98684;-87
2020/12/21 00:13:03;;;;;;;57.17;25.60;;;;;;;-0.15;94.01;101353.39;3429218;85;28260;-87
2020/12/21 00:18:04;;;;;;;58.93;26.17;;;;;;;-0.22;94.11;101351.53;3419675;85;98886;-87
2020/12/21 00:23:05;;;;;;;53.67;23.90;;;;;;;-0.25;94.35;101348.06;3430757;84;26189;-86
2020/12/21 00:28:05;;;;;;;50.70;25.65;;;;;;;-0.24;94.40;101342.91;3424943;85;99352;-88
2020/12/21 00:33:06;;;;;;;56.37;25.57;;;;;;;-0.27;94.38;101350.78;3427824;85;26464;-87
2020/12/21 00:38:08;;;;;;;49.00;23.30;;;;;;;-0.26;94.47;101359.98;3418861;84;98903;-88
2020/12/21 00:43:09;;;;;;;52.30;25.13;;;;;;;-0.29;94.34;101355.68;3461039;84;26312;-88
2020/12/21 00:48:10;;;;;;;54.93;26.10;;;;;;;-0.37;94.45;101348.41;3450314;84;98880;-88
2020/12/21 00:53:11;;;;;;;52.03;25.30;;;;;;;-0.34;94.50;101357.86;3462053;84;25992;-88
2020/12/21 00:58:12;;;;;;;56.55;24.95;;;;;;;-0.36;94.57;101354.64;3455684;83;99076;-88
2020/12/21 01:03:15;;;;;;;52.50;24.37;;;;;;;-0.39;94.40;101350.34;3465086;84;33294;-89
2020/12/21 01:08:16;;;;;;;56.83;26.30;;;;;;;-0.58;94.29;101356.14;3458375;84;98530;-89
2020/12/21 01:13:17;;;;;;;62.83;25.83;;;;;;;-0.63;94.75;101352.94;3454425;84;33359;-88
2020/12/21 01:18:18;;;;;;;52.57;24.53;;;;;;;-0.59;94.70;101350.48;3437787;84;98747;-88
2020/12/21 01:23:20;;;;;;;53.60;26.60;;;;;;;-0.54;94.73;101352.63;3457763;84;33898;-89
2020/12/21 01:28:21;;;;;;;51.80;24.67;;;;;;;-0.44;94.61;101349.81;3450438;84;98862;-88
2020/12/21 01:33:22;;;;;;;62.30;27.93;;;;;;;-0.42;94.63;101350.36;3460634;84;33770;-88
2020/12/21 01:38:22;;;;;;;53.10;24.17;;;;;;;-0.43;94.57;101342.53;3447856;84;98836;-88
2020/12/21 01:43:23;;;;;;;54.97;26.90;;;;;;;-0.47;94.22;101338.23;3463671;84;31473;-88
2020/12/21 01:48:24;;;;;;;56.33;23.90;;;;;;;-0.59;94.37;101343.19;3447093;84;98882;-89
2020/12/21 01:53:26;;;;;;;61.10;27.97;;;;;;;-0.60;94.44;101340.77;3468565;84;29811;-89
2020/12/21 01:58:26;;;;;;;48.33;22.70;;;;;;;-0.66;94.45;101341.89;3464626;84;98679;-88
2020/12/21 02:03:28;;;;;;;57.90;25.33;;;;;;;-0.67;94.48;101341.63;3471433;84;27623;-88
2020/12/21 02:08:29;;;;;;;49.07;23.53;;;;;;;-0.67;94.48;101341.63;3459612;84;98632;-88
2020/12/21 02:13:29;;;;;;;54.10;25.97;;;;;;;-0.72;94.51;101330.84;3463327;84;25956;-88
2020/12/21 02:18:30;;;;;;;48.10;22.77;;;;;;;-0.73;94.65;101334.08;3467073;83;98587;-88
2020/12/21 02:23:31;;;;;;;53.40;26.60;;;;;;;-0.73;94.62;101330.03;3472115;84;31727;-88
2020/12/21 02:28:32;;;;;;;48.30;22.70;;;;;;;-0.71;94.81;101332.45;3457973;84;98767;-88
2020/12/21 02:33:34;;;;;;;56.80;24.13;;;;;;;-0.75;94.74;101323.28;3468819;84;30254;-88
2020/12/21 02:38:35;;;;;;;46.67;21.43;;;;;;;-0.65;95.24;101321.87;3459907;84;98677;-89
2020/12/21 02:43:35;;;;;;;50.03;23.17;;;;;;;-0.58;95.28;101325.05;3477788;84;30023;-88
2020/12/21 02:48:37;;;;;;;48.27;23.17;;;;;;;-0.50;95.49;101328.53;3459503;83;98594;-88
2020/12/21 02:53:37;;;;;;;47.83;23.42;;;;;;;-0.52;95.66;101325.28;3471520;84;29005;-88
2020/12/21 02:58:39;;;;;;;45.27;21.07;;;;;;;-0.43;95.82;101327.12;3460688;84;99908;-89
2020/12/21 03:03:39;;;;;;;50.40;24.17;;;;;;;-0.36;95.99;101316.22;3471020;84;27162;-88
2020/12/21 03:08:40;;;;;;;41.63;20.63;;;;;;;-0.22;96.10;101322.60;3435307;84;98719;-88
2020/12/21 03:13:44;;;;;;;48.23;22.33;;;;;;;-0.07;96.15;101315.70;3464416;84;35081;-88
2020/12/21 03:18:44;;;;;;;42.60;19.55;;;;;;;0.07;96.12;101313.14;3462592;84;98536;-89
2020/12/21 03:23:45;;;;;;;45.53;21.50;;;;;;;0.13;96.12;101306.02;3472826;84;35620;-88
2020/12/21 03:28:46;;;;;;;41.73;19.93;;;;;;;0.26;96.18;101298.58;3469616;83;98518;-87
2020/12/21 03:33:47;;;;;;;37.30;19.63;;;;;;;0.34;95.96;101305.27;3468481;84;35400;-87
2020/12/21 03:38:48;;;;;;;46.33;24.00;;;;;;;0.37;95.97;101298.73;3461370;84;98677;-87
2020/12/21 03:43:49;;;;;;;48.47;22.97;;;;;;;0.44;96.07;101310.01;3460900;84;35145;-87
2020/12/21 03:48:50;;;;;;;45.93;23.83;;;;;;;0.51;96.09;101302.34;3414022;84;98553;-88
2020/12/21 03:53:51;;;;;;;43.10;22.23;;;;;;;0.62;96.08;101303.82;3449325;84;36083;-87
2020/12/21 03:58:52;;;;;;;41.83;21.87;;;;;;;0.77;95.96;101302.28;3451084;84;98522;-87
2020/12/21 04:03:53;;;;;;;41.23;20.33;;;;;;;0.87;95.61;101296.73;3464792;84;32678;-86
2020/12/21 04:08:53;;;;;;;39.00;18.00;;;;;;;0.91;95.50;101298.31;3444890;84;98386;-86
2020/12/21 04:13:55;;;;;;;42.17;18.53;;;;;;;0.88;95.63;101298.91;3454489;84;32743;-87
2020/12/21 04:18:56;;;;;;;37.40;18.33;;;;;;;0.94;95.63;101315.35;3452688;84;98661;-87
2020/12/21 04:23:57;;;;;;;38.37;17.67;;;;;;;0.97;95.78;101310.69;3459570;84;33198;-86
2020/12/21 04:28:57;;;;;;;37.50;18.70;;;;;;;1.09;95.73;101305.66;3449960;84;98681;-87
2020/12/21 04:33:58;;;;;;;33.70;16.90;;;;;;;1.20;95.62;101315.27;3461504;84;32749;-87
2020/12/21 04:38:59;;;;;;;36.93;18.27;;;;;;;1.28;95.60;101316.76;3422518;84;98647;-86
2020/12/21 04:44:01;;;;;;;35.23;16.70;;;;;;;1.34;95.30;101316.94;3469589;84;30975;-87
2020/12/21 04:49:02;;;;;;;34.53;17.40;;;;;;;1.43;95.25;101321.14;3432895;84;98515;-87
2020/12/21 04:54:03;;;;;;;37.53;19.03;;;;;;;1.51;95.09;101326.70;3476504;84;26289;-87
2020/12/21 04:59:04;;;;;;;37.73;19.10;;;;;;;1.51;94.72;101329.42;3464845;84;98657;-87
2020/12/21 05:04:06;;;;;;;33.73;17.23;;;;;;;1.46;94.84;101326.78;3470950;84;26551;-87
2020/12/21 05:09:09;;;;;;;38.37;17.93;;;;;;;1.47;94.74;101317.53;3457354;84;98701;-85
2020/12/21 05:14:12;;;;;;;36.77;18.23;;;;;;;1.49;94.95;101322.11;3461485;84;28468;-88
2020/12/21 05:19:24;;;;;;;35.60;18.27;;;;;;;1.57;94.94;101326.88;3445899;84;98674;-88
2020/12/21 05:24:25;;;;;;;38.07;18.80;;;;;;;1.71;94.88;101329.64;3469746;84;27574;-87
2020/12/21 05:29:27;;;;;;;37.90;18.32;;;;;;;1.76;94.50;101329.56;3466309;84;98898;-86
2020/12/21 05:34:28;;;;;;;36.37;18.73;;;;;;;1.74;94.39;101327.14;3466031;84;28244;-86
2020/12/21 05:39:29;;;;;;;35.10;18.50;;;;;;;1.67;94.45;101336.22;3461835;84;98448;-86
2020/12/21 05:44:30;;;;;;;36.90;15.80;;;;;;;1.65;94.51;101324.05;3459661;84;25992;-86
2020/12/21 05:49:32;;;;;;;32.00;15.50;;;;;;;1.70;94.50;101332.11;3424486;84;98904;-87
2020/12/21 05:54:34;;;;;;;36.10;19.23;;;;;;;1.70;94.62;101329.39;3462411;84;26567;-87
2020/12/21 05:59:37;;;;;;;40.00;18.30;;;;;;;1.76;94.69;101330.34;3453873;84;98633;-85
2020/12/21 06:04:39;;;;;;;37.67;19.70;;;;;;;1.86;94.65;101335.61;3460646;84;28266;-88
2020/12/21 06:09:45;;;;;;;34.88;17.32;;;;;;;1.87;94.56;101344.00;3452740;84;98600;-88
2020/12/21 06:14:48;;;;;;;39.23;17.87;;;;;;;1.84;94.59;101342.44;3465369;84;28313;-87
2020/12/21 06:19:49;;;;;;;37.40;16.45;;;;;;;1.84;94.66;101336.47;3444474;84;98562;-87
2020/12/21 06:24:50;;;;;;;35.35;17.05;;;;;;;1.88;94.79;101336.67;3451944;84;26336;-88
2020/12/21 06:29:59;;;;;;;36.40;18.07;;;;;;;1.96;94.83;101344.12;3442139;84;98879;-86
2020/12/21 06:35:04;;;;;;;43.63;19.40;;;;;;;2.01;94.72;101337.25;3452973;84;28821;-87
2020/12/21 06:40:06;;;;;;;44.00;19.33;;;;;;;2.06;94.85;101337.17;3453428;82;98341;-86
2020/12/21 06:45:13;;;;;;;41.67;17.97;;;;;;;2.13;94.68;101341.68;3471058;84;28302;-86
2020/12/21 06:50:13;;;;;;;35.13;18.15;;;;;;;2.16;94.60;101351.39;3463499;84;98183;-86
2020/12/21 06:55:15;;;;;;;34.33;18.63;;;;;;;2.18;94.58;101354.60;3469872;84;26373;-86
2020/12/21 07:00:21;;;;;;;33.02;17.42;;;;;;;2.15;94.53;101357.11;3465378;84;98785;-85
2020/12/21 07:05:21;;;;;;;37.83;18.67;;;;;;;2.07;94.68;101347.73;3473351;84;28771;-85
2020/12/21 07:10:22;;;;;;;34.87;18.70;;;;;;;2.04;94.85;101347.53;3464836;84;98292;-88
2020/12/21 07:15:23;;;;;;;40.40;19.67;;;;;;;2.04;94.97;101354.32;3466489;84;26677;-89
2020/12/21 07:20:24;;;;;;;52.20;23.40;;;;;;;2.04;95.10;101366.00;3465949;84;98340;-88
2020/12/21 07:25:25;;;;;;;39.63;18.67;;;;;;;2.10;95.17;101356.66;3469004;84;26514;-89
2020/12/21 07:30:27;;;;;;;37.42;18.73;;;;;;;2.18;95.23;101356.53;3460673;84;98298;-88
2020/12/21 07:35:27;;;;;;;34.33;17.87;;;;;;;2.30;95.24;101358.20;3471714;84;26315;-84
2020/12/21 07:40:28;;;;;;;32.37;16.97;;;;;;;2.35;95.07;101370.34;3459628;84;98310;-88
2020/12/21 07:45:33;;;;;;;37.53;19.20;;;;;;;2.41;95.06;101365.84;3456801;84;26807;-89
2020/12/21 07:50:35;;;;;;;33.07;18.53;;;;;;;2.45;95.13;101367.41;3453639;84;98524;-88
2020/12/21 07:55:36;;;;;;;38.03;19.17;;;;;;;2.45;94.99;101364.16;3455670;84;27110;-89
2020/12/21 08:00:37;;;;;;;39.07;19.03;;;;;;;2.42;95.07;101357.98;3445559;84;98199;-89
2020/12/21 08:05:38;;;;;;;35.23;18.47;;;;;;;2.39;95.09;101357.75;3448611;84;26637;-89
2020/12/21 08:10:39;;;;;;;34.07;18.30;;;;;;;2.36;95.33;101364.58;3440561;84;98863;-90
2020/12/21 08:15:59;;;;;;;39.50;19.40;;;;;;;2.45;95.53;101372.30;3458598;84;26904;-89
2020/12/21 08:21:00;;;;;;;36.70;19.70;;;;;;;2.51;95.65;101374.39;3491658;81;98169;-94
2020/12/21 08:26:09;;;;;;;37.50;18.83;;;;;;;2.53;95.71;101373.52;3565115;81;26177;-94
2020/12/21 08:31:18;;;;;;;38.27;20.23;;;;;;;2.57;95.74;101373.97;3581742;81;98929;-96
2020/12/21 08:36:23;;;;;;;39.90;21.97;;;;;;;2.62;95.77;101375.80;3593030;81;27501;-94
2020/12/21 08:41:30;;;;;;;40.85;21.80;;;;;;;2.70;95.84;101377.80;3578116;81;98410;-93
2020/12/21 08:46:31;;;;;;;36.25;19.65;;;;;;;2.69;95.83;101385.14;3550908;82;29279;-93
2020/12/21 08:51:31;;;;;;;39.53;20.37;;;;;;;2.64;95.87;101383.09;3570726;82;97945;-94
2020/12/21 08:56:32;;;;;;;39.70;20.63;;;;;;;2.65;96.14;101380.62;3579001;81;26575;-94
2020/12/21 09:01:33;;;;;;;35.30;18.43;;;;;;;2.72;96.30;101385.09;3566218;81;97879;-94
2020/12/21 09:06:35;;;;;;;38.60;19.23;;;;;;;2.80;96.16;101383.05;3568689;81;25964;-94
2020/12/21 09:12:29;;;;;;;36.77;19.10;;;;;;;2.95;96.30;101385.47;3560817;81;118507;-96
2020/12/21 09:17:56;;;;;;;42.30;20.90;;;;;;;3.09;96.36;101381.63;3548215;82;99225;-92
2020/12/21 09:22:57;;;;;;;37.60;20.57;;;;;;;3.26;96.06;101381.80;3384279;85;26617;-94
2020/12/21 09:27:58;;;;;;;40.92;21.20;;;;;;;3.34;95.84;101391.94;3352195;85;98530;-94
2020/12/21 09:32:59;;;;;;;41.80;23.20;;;;;;;3.45;95.77;101394.69;3530304;82;26523;-94
2020/12/21 09:38:00;;;;;;;43.13;22.07;;;;;;;3.53;95.57;101393.98;3607709;80;98407;-96
2020/12/21 09:43:01;;;;;;;47.53;23.70;;;;;;;3.50;95.44;101393.22;3660950;79;25804;-94
2020/12/21 09:48:02;;;;;;;52.60;26.33;;;;;;;3.45;95.47;101391.97;3653403;79;98459;-95
2020/12/21 09:53:02;;;;;;;52.13;24.77;;;;;;;3.40;95.64;101391.29;3658769;80;26552;-96
2020/12/21 09:58:03;;;;;;;40.43;20.70;;;;;;;3.40;95.82;101396.19;3653926;79;98460;-95
2020/12/21 10:03:04;;;;;;;53.40;27.47;;;;;;;3.45;95.92;101393.33;3665628;80;26073;-93
2020/12/21 10:08:05;;;;;;;45.20;22.07;;;;;;;3.56;95.91;101391.98;3652204;79;98652;-94
2020/12/21 10:13:06;;;;;;;41.97;23.13;;;;;;;3.66;95.87;101382.80;3661370;79;33369;-93
2020/12/21 10:18:07;;;;;;;38.43;21.20;;;;;;;3.77;95.77;101380.09;3655770;79;98495;-94
2020/12/21 10:23:08;;;;;;;44.37;20.57;;;;;;;3.87;95.87;101377.13;3654468;79;33364;-93
2020/12/21 10:28:09;;;;;;;39.90;21.23;;;;;;;4.01;95.70;101382.76;3649267;79;98731;-93
2020/12/21 10:33:16;;;;;;;41.57;22.17;;;;;;;4.08;95.32;101385.02;3644583;80;33996;-94
2020/12/21 10:38:16;;;;;;;;;;;;;;;4.09;95.26;101379.27;3651129;79;98751;-93
2020/12/21 10:43:17;;;;;;;41.67;22.20;;;;;;;4.03;95.19;101372.34;3645953;79;33302;-94
2020/12/21 10:48:18;;;;;;;42.63;22.33;;;;;;;3.99;95.30;101387.69;3621059;79;98469;-94
2020/12/21 10:53:19;;;;;;;37.87;20.53;;;;;;;3.95;95.42;101388.63;3639054;79;33366;-94
2020/12/21 10:58:20;;;;;;;36.73;20.40;;;;;;;3.92;95.56;101378.34;3642144;79;98843;-93
2020/12/21 11:03:21;;;;;;;39.53;21.03;;;;;;;3.93;95.66;101376.67;3644521;79;31471;-93
2020/12/21 11:08:22;;;;;;;42.87;23.60;;;;;;;4.00;95.71;101378.98;3642271;79;98371;-94
2020/12/21 11:13:23;;;;;;;42.90;22.43;;;;;;;4.12;95.75;101362.87;3654229;79;28619;-93
2020/12/21 11:18:24;;;;;;;39.97;21.50;;;;;;;4.27;95.65;101361.12;3632972;80;98602;-93
2020/12/21 11:23:25;;;;;;;37.63;20.10;;;;;;;4.37;95.35;101354.83;3647548;79;31812;-94
2020/12/21 11:28:25;;;;;;;40.00;20.67;;;;;;;4.45;95.24;101362.80;3614375;79;99287;-93
2020/12/21 11:33:26;;;;;;;35.27;19.27;;;;;;;4.51;95.11;101365.64;3640456;79;32296;-93
2020/12/21 11:38:27;;;;;;;35.43;19.20;;;;;;;4.54;94.83;101352.75;3637056;80;98716;-94
2020/12/21 11:43:28;;;;;;;34.17;18.43;;;;;;;4.54;94.65;101349.45;3639201;79;30511;-92
2020/12/21 11:48:29;;;;;;;33.38;19.35;;;;;;;4.53;94.71;101337.52;3611757;79;98682;-94
2020/12/21 11:53:29;;;;;;;37.65;18.98;;;;;;;4.53;94.63;101334.22;3640338;79;29914;-93
2020/12/21 11:58:31;;;;;;;46.00;23.60;;;;;;;4.53;94.67;101330.12;3635320;79;98641;-94
2020/12/21 12:03:32;;;;;;;38.63;21.83;;;;;;;4.60;94.84;101325.59;3649404;80;35039;-94
2020/12/21 12:08:33;;;;;;;38.00;19.03;;;;;;;4.69;94.60;101328.59;3627905;79;98816;-94
2020/12/21 12:13:34;;;;;;;32.50;18.77;;;;;;;4.77;94.84;101330.55;3623012;80;35213;-91
2020/12/21 12:18:34;;;;;;;38.97;20.60;;;;;;;4.88;94.54;101337.33;3638751;79;99155;-93
2020/12/21 12:23:35;;;;;;;43.33;22.07;;;;;;;4.95;94.37;101324.02;3636545;79;35472;-94
2020/12/21 12:28:37;;;;;;;44.00;21.63;;;;;;;5.00;94.15;101327.96;3640806;79;98753;-91
2020/12/21 12:33:38;;;;;;;40.27;21.50;;;;;;;5.01;93.85;101317.28;3644293;79;34961;-93
2020/12/21 12:38:38;;;;;;;38.13;20.17;;;;;;;5.03;93.85;101327.89;3636125;80;98860;-90
2020/12/21 12:43:40;;;;;;;29.63;14.57;;;;;;;4.95;93.63;101324.02;3551478;81;35089;-89
2020/12/21 12:48:41;;;;;;;34.00;16.73;;;;;;;4.90;93.79;101324.16;3550682;81;98733;-91
2020/12/21 12:53:42;;;;;;;30.50;16.00;;;;;;;4.91;93.84;101328.48;3574236;81;35661;-93
2020/12/21 12:58:43;;;;;;;37.33;17.60;;;;;;;5.04;94.04;101322.67;3591291;80;98897;-91
2020/12/21 13:03:44;;;;;;;30.47;16.60;;;;;;;5.15;93.71;101326.15;3594219;81;33203;-91
2020/12/21 13:08:45;;;;;;;39.57;18.33;;;;;;;5.26;93.40;101332.09;3597593;80;98941;-93
2020/12/21 13:13:45;;;;;;;40.40;19.53;;;;;;;5.32;92.92;101326.16;3594022;80;32818;-93
2020/12/21 13:18:47;;;;;;;34.50;20.80;;;;;;;5.33;93.30;101322.30;3595234;80;98535;-93
2020/12/21 13:23:49;;;;;;;37.40;19.50;;;;;;;5.37;93.21;101321.09;3593961;80;32664;-93
2020/12/21 13:28:50;;;;;;;33.77;19.23;;;;;;;5.40;92.91;101316.38;3592770;80;98728;-92
2020/12/21 13:33:50;;;;;;;31.60;17.82;;;;;;;5.30;92.80;101325.66;3597641;80;33257;-92
2020/12/21 13:38:51;;;;;;;33.50;18.60;;;;;;;5.21;92.74;101327.59;3587867;81;98844;-95
2020/12/21 13:43:52;;;;;;;32.07;17.17;;;;;;;5.23;92.89;101323.19;3592269;80;32738;-93
2020/12/21 13:48:53;;;;;;;31.33;16.47;;;;;;;5.31;92.93;101326.47;3586726;80;98847;-93
2020/12/21 13:53:54;;;;;;;35.30;17.25;;;;;;;5.33;92.71;101311.94;3595692;81;32666;-92
2020/12/21 13:58:55;;;;;;;31.93;17.53;;;;;;;5.36;92.62;101309.95;3587057;80;98798;-93
2020/12/21 14:03:56;;;;;;;38.80;19.90;;;;;;;5.36;92.44;101310.73;3593650;81;26322;-93
2020/12/21 14:08:57;;;;;;;38.83;19.90;;;;;;;5.35;92.28;101307.77;3590391;80;98530;-92
2020/12/21 14:13:58;;;;;;;43.17;21.33;;;;;;;5.23;92.18;101315.00;3595089;81;26504;-91
2020/12/21 14:18:59;;;;;;;56.73;25.90;;;;;;;5.08;92.16;101305.91;3596309;81;98701;-92
2020/12/21 14:24:00;;;;;;;59.23;26.80;;;;;;;4.91;92.18;101313.48;3594070;80;26022;-93
2020/12/21 14:29:01;;;;;;;47.03;23.90;;;;;;;4.74;92.43;101320.27;3600411;80;98383;-93
2020/12/21 14:34:04;;;;;;;44.63;23.30;;;;;;;4.66;92.62;101317.52;3601972;80;26022;-93
2020/12/21 14:39:07;;;;;;;82.27;42.30;;;;;;;4.65;92.71;101322.16;3594676;81;98716;-93
2020/12/21 14:44:09;;;;;;;58.00;30.00;;;;;;;4.66;92.62;101324.33;3599638;81;27468;-93
2020/12/21 14:49:10;;;;;;;224.80;111.13;;;;;;;4.66;92.72;101321.05;3604656;80;98395;-91
2020/12/21 14:54:11;;;;;;;225.05;114.10;;;;;;;4.74;92.50;101318.12;3593479;81;26374;-93
2020/12/21 14:59:12;;;;;;;157.70;80.67;;;;;;;4.65;92.24;101313.19;3601208;80;98851;-92
2020/12/21 15:04:13;;;;;;;123.93;70.60;;;;;;;4.57;91.88;101309.86;3613026;81;26041;-93
2020/12/21 15:09:14;;;;;;;124.10;67.70;;;;;;;4.39;91.81;101298.66;3594281;81;98495;-93
2020/12/21 15:14:15;;;;;;;81.20;43.77;;;;;;;4.16;91.92;101297.11;3583350;80;26566;-93
2020/12/21 15:19:17;;;;;;;78.10;40.30;;;;;;;4.01;92.15;101302.41;3590945;80;98785;-94
2020/12/21 15:24:19;;;;;;;69.17;35.57;;;;;;;3.79;92.29;101295.63;3617751;81;26860;-94
2020/12/21 15:29:20;;;;;;;64.60;33.57;;;;;;;3.63;92.55;101301.20;3603042;81;98567;-94
2020/12/21 15:34:21;;;;;;;57.40;29.33;;;;;;;3.59;92.91;101299.39;3629761;80;26569;-93
2020/12/21 15:39:22;;;;;;;51.13;26.83;;;;;;;3.63;93.13;101301.75;3615211;80;99270;-93
2020/12/21 15:44:23;;;;;;;50.47;26.40;;;;;;;3.65;93.16;101308.48;3619031;80;25989;-94
2020/12/21 15:49:24;;;;;;;56.67;31.20;;;;;;;3.69;93.31;101299.97;3621273;80;98531;-93
2020/12/21 15:54:25;;;;;;;76.03;43.00;;;;;;;3.74;93.34;101297.66;3603356;81;26117;-94
2020/12/21 15:59:26;;;;;;;74.73;38.07;;;;;;;3.71;93.24;101299.09;3622191;81;98615;-93
2020/12/21 16:04:27;;;;;;;67.30;34.53;;;;;;;3.62;93.18;101292.80;3610440;80;26022;-94
2020/12/21 16:09:27;;;;;;;66.23;33.73;;;;;;;3.50;93.13;101288.44;3612676;80;98927;-94
2020/12/21 16:14:29;;;;;;;59.57;31.43;;;;;;;3.38;93.04;101290.92;3618588;80;33726;-95
2020/12/21 16:19:29;;;;;;;63.23;32.20;;;;;;;3.26;93.14;101292.02;3614822;80;98340;-93
2020/12/21 16:24:31;;;;;;;85.70;41.03;;;;;;;3.19;93.52;101282.67;3619502;80;33451;-93
2020/12/21 16:29:32;;;;;;;93.30;45.80;;;;;;;3.14;93.50;101281.42;3613742;81;98783;-94
2020/12/21 16:34:33;;;;;;;109.43;51.40;;;;;;;3.20;93.73;101279.66;3629409;80;31459;-94
2020/12/21 16:39:34;;;;;;;101.63;45.40;;;;;;;3.23;93.68;101286.40;3617364;80;99220;-93
2020/12/21 16:44:37;;;;;;;98.00;44.60;;;;;;;3.24;93.63;101276.58;3624846;81;33319;-93
2020/12/21 16:49:38;;;;;;;85.30;42.63;;;;;;;3.27;93.66;101269.72;3606575;81;98771;-92
2020/12/21 16:54:39;;;;;;;63.57;32.70;;;;;;;3.27;93.68;101267.00;3622613;80;33321;-93
2020/12/21 16:59:40;;;;;;;56.57;29.43;;;;;;;3.20;93.41;101258.44;3615630;80;98789;-92
2020/12/21 17:04:41;;;;;;;64.63;32.83;;;;;;;3.10;93.43;101258.67;3619301;80;31678;-93
2020/12/21 17:09:42;;;;;;;59.87;29.57;;;;;;;2.99;93.62;101258.65;3615590;81;98911;-93
2020/12/21 17:14:43;;;;;;;54.80;28.57;;;;;;;2.87;93.56;101257.02;3620031;80;31115;-94
2020/12/21 17:19:44;;;;;;;55.93;25.07;;;;;;;2.77;93.83;101260.78;3617030;79;98471;-93
2020/12/21 17:24:44;;;;;;;48.30;23.80;;;;;;;2.79;94.02;101250.97;3608436;80;29024;-93
2020/12/21 17:29:45;;;;;;;45.10;23.23;;;;;;;2.78;94.14;101239.28;3589163;81;98798;-93
2020/12/21 17:34:46;;;;;;;54.70;23.57;;;;;;;2.80;94.39;101237.63;3604018;81;32398;-93
2020/12/21 17:39:47;;;;;;;53.23;26.67;;;;;;;2.91;94.40;101245.80;3602326;80;98915;-93
2020/12/21 17:44:50;;;;;;;87.63;40.73;;;;;;;3.02;94.35;101237.11;3608176;80;31821;-94
2020/12/21 17:49:52;;;;;;;77.67;36.93;;;;;;;2.98;94.07;101227.95;3598534;81;98793;-93
2020/12/21 17:54:53;;;;;;;72.87;31.90;;;;;;;2.87;94.00;101227.13;3599599;81;31789;-95
2020/12/21 17:59:55;;;;;;;72.27;33.47;;;;;;;2.74;94.04;101222.53;3601689;80;98327;-93
2020/12/21 18:04:55;;;;;;;52.67;26.23;;;;;;;2.66;94.15;101224.06;3597994;81;31736;-94
2020/12/21 18:10:03;;;;;;;48.23;23.92;;;;;;;2.57;94.28;101218.30;3597172;81;98668;-93
2020/12/21 18:15:05;;;;;;;55.83;25.83;;;;;;;2.55;94.18;101222.67;3598663;81;31767;-93
2020/12/21 18:20:06;;;;;;;57.23;26.43;;;;;;;2.56;94.37;101222.91;3598145;80;98586;-93
2020/12/21 18:25:07;;;;;;;51.17;25.37;;;;;;;2.58;94.25;101219.33;3612129;81;31562;-95
2020/12/21 18:30:08;;;;;;;52.40;25.67;;;;;;;2.57;94.20;101223.16;3622305;80;98745;-96
2020/12/21 18:35:09;;;;;;;54.37;25.93;;;;;;;2.54;94.13;101214.28;3632737;80;31434;-96
2020/12/21 18:40:10;;;;;;;67.40;30.33;;;;;;;2.51;94.30;101224.38;3622128;80;98180;-96
2020/12/21 18:45:11;;;;;;;58.13;27.90;;;;;;;2.43;94.23;101228.37;3634881;81;31409;-96
2020/12/21 18:50:12;;;;;;;59.50;28.33;;;;;;;2.33;94.82;101223.95;3624983;80;97964;-96
2020/12/21 18:55:13;;;;;;;52.27;25.17;;;;;;;2.27;94.76;101220.28;3630420;80;29671;-96
2020/12/21 19:00:14;;;;;;;54.60;25.53;;;;;;;2.24;94.86;101207.32;3623590;80;98136;-96
2020/12/21 19:05:15;;;;;;;56.00;27.23;;;;;;;2.20;95.19;101214.45;3628214;80;29606;-96
2020/12/21 19:10:16;;;;;;;55.10;26.13;;;;;;;2.20;95.29;101207.66;3616642;81;98439;-96
2020/12/21 19:15:17;;;;;;;65.30;31.27;;;;;;;2.20;95.19;101202.23;3637310;81;25527;-96
2020/12/21 19:20:17;;;;;;;62.90;30.27;;;;;;;2.21;95.18;101210.09;3624092;81;98982;-96
2020/12/21 19:25:18;;;;;;;51.40;25.53;;;;;;;2.28;95.21;101211.83;3628240;81;34874;-96
2020/12/21 19:30:21;;;;;;;53.67;26.40;;;;;;;2.34;95.15;101205.19;3605416;81;97574;-96
2020/12/21 19:35:22;;;;;;;55.38;27.15;;;;;;;2.38;95.09;101195.33;3616510;81;27612;-96
2020/12/21 19:40:23;;;;;;;59.00;27.60;;;;;;;2.41;94.87;101191.99;3608470;81;98120;-96
2020/12/21 19:45:24;;;;;;;59.63;29.10;;;;;;;2.38;94.76;101174.14;3611274;81;35020;-96
2020/12/21 19:50:25;;;;;;;61.97;31.10;;;;;;;2.35;94.65;101180.98;3600447;80;98739;-96
2020/12/21 19:55:26;;;;;;;58.47;26.70;;;;;;;2.22;94.42;101171.50;3607420;81;35011;-96
2020/12/21 20:00:27;;;;;;;57.40;27.13;;;;;;;2.01;94.47;101171.66;3596368;81;97535;-96
2020/12/21 20:05:28;;;;;;;54.23;26.27;;;;;;;1.94;94.90;101158.51;3623842;81;34898;-96
2020/12/21 20:10:29;;;;;;;52.70;27.57;;;;;;;1.93;95.10;101153.38;3613142;81;97459;-96
2020/12/21 20:15:29;;;;;;;54.40;26.97;;;;;;;1.99;95.24;101156.23;3621165;80;34973;-96
2020/12/21 20:20:30;;;;;;;56.05;29.02;;;;;;;2.03;95.46;101151.25;3623797;81;97533;-96
2020/12/21 20:25:31;;;;;;;55.70;25.90;;;;;;;2.10;95.33;101145.42;3623020;80;32477;-96
2020/12/21 20:30:33;;;;;;;60.13;27.70;;;;;;;2.16;95.33;101131.44;3606701;81;98287;-96
2020/12/21 20:35:34;;;;;;;55.73;25.97;;;;;;;2.15;95.23;101133.09;3609609;80;33655;-96
2020/12/21 20:40:35;;;;;;;61.83;27.43;;;;;;;2.10;95.09;101139.45;3599043;80;98102;-96
2020/12/21 20:45:35;;;;;;;73.77;32.70;;;;;;;2.01;95.00;101122.80;3606563;81;32635;-96
2020/12/21 20:50:36;;;;;;;56.90;25.47;;;;;;;1.89;95.15;101130.11;3581832;79;97725;-79
2020/12/21 20:55:37;;;;;;;51.90;24.67;;;;;;;1.83;95.13;101108.25;3576883;81;32832;-78
2020/12/21 21:00:38;;;;;;;54.53;26.48;;;;;;;1.79;95.40;101096.92;3568454;81;98565;-78
2020/12/21 21:05:40;;;;;;;60.73;28.20;;;;;;;1.78;95.39;101090.72;3570946;81;33286;-79
2020/12/21 21:10:41;;;;;;;56.00;28.33;;;;;;;1.73;95.57;101085.93;3559697;81;98517;-79
2020/12/21 21:15:42;;;;;;;83.20;37.57;;;;;;;1.63;95.62;101067.13;3538315;82;98708;-78
2020/12/21 21:20:43;;;;;;;74.77;34.50;;;;;;;1.80;95.48;101072.78;3572098;81;32120;-78
2020/12/21 21:25:44;;;;;;;60.67;28.33;;;;;;;1.89;95.52;101065.51;3562243;81;98667;-78
2020/12/21 21:30:44;;;;;;;51.70;23.63;;;;;;;1.84;95.12;101065.08;3566906;81;26408;-78
2020/12/21 21:35:46;;;;;;;57.00;26.23;;;;;;;1.73;95.15;101060.97;3517352;82;98890;-78
2020/12/21 21:40:47;;;;;;;61.50;26.53;;;;;;;1.67;95.23;101063.54;3512229;82;27047;-79
2020/12/21 21:45:48;;;;;;;68.00;29.93;;;;;;;1.55;95.39;101051.04;3503954;81;98431;-79
2020/12/21 21:50:49;;;;;;;58.77;26.67;;;;;;;1.53;95.60;101048.38;3505868;82;26614;-79
2020/12/21 21:55:50;;;;;;;55.17;24.47;;;;;;;1.53;95.69;101036.17;3489701;82;98801;-79
2020/12/21 22:00:51;;;;;;;53.67;25.83;;;;;;;1.46;95.94;101037.11;3497469;83;26554;-78
2020/12/21 22:05:52;;;;;;;50.07;24.67;;;;;;;1.44;96.16;101018.45;3487996;82;98763;-78
2020/12/21 22:10:53;;;;;;;50.53;23.30;;;;;;;1.48;95.99;101001.02;3495627;83;26815;-78
2020/12/21 22:15:53;;;;;;;47.50;23.43;;;;;;;1.48;96.02;100996.37;3499066;83;98537;-79
2020/12/21 22:20:56;;;;;;;53.50;24.73;;;;;;;1.45;95.89;100992.11;3493622;83;33551;-79
2020/12/21 22:25:57;;;;;;;50.60;24.85;;;;;;;1.43;95.97;100992.41;3485103;82;98433;-80
2020/12/21 22:30:58;;;;;;;65.00;28.90;;;;;;;1.41;95.88;100982.42;3499457;83;33858;-79
2020/12/21 22:36:00;;;;;;;57.48;26.07;;;;;;;1.42;95.80;100969.11;3491509;82;98507;-79
2020/12/21 22:41:01;;;;;;;53.87;23.67;;;;;;;1.35;95.71;100963.30;3508306;83;34160;-79
2020/12/21 22:46:03;;;;;;;56.23;23.30;;;;;;;1.31;95.69;100960.94;3503478;83;98539;-80
2020/12/21 22:51:04;;;;;;;52.10;23.43;;;;;;;1.24;95.82;100951.06;3511571;82;33563;-80
2020/12/21 22:56:04;;;;;;;53.83;22.70;;;;;;;1.23;95.96;100953.53;3503895;82;98499;-80
2020/12/21 23:01:06;;;;;;;55.27;24.00;;;;;;;1.21;95.83;100955.72;3518748;82;33687;-79
2020/12/21 23:06:06;;;;;;;54.27;25.07;;;;;;;1.21;96.06;100936.74;3512439;82;98766;-79